Time;durP1;ratioP1;P1;durP2;ratioP2;P2;SDS_P1;SDS_P2;PMS_P1;PMS_P2;Temp;Humidity;BMP_temperature;BMP_pressure;BME280_temperature;BME280_humidity;BME280_pressure;Samples;Min_cycle;Max_cycle;Signal;HPM_P1;HPM_P2
2020/12/03 00:01:43;;;;;;;35.80;18.60;;;;;;;-1.28;76.58;100753.75;1786703;79;25641;-52
2020/12/03 00:04:10;;;;;;;36.73;18.62;;;;;;;-1.28;76.47;100748.97;1786693;79;25677;-50
2020/12/03 00:06:50;;;;;;;37.05;17.30;;;;;;;-1.23;76.55;100747.27;1786600;80;25706;-51
2020/12/03 00:09:19;;;;;;;38.02;19.48;;;;;;;-1.20;76.53;100748.16;1786719;80;25729;-49
2020/12/03 00:11:51;;;;;;;36.75;18.87;;;;;;;-1.17;76.53;100745.08;1786959;79;25984;-50
2020/12/03 00:14:19;;;;;;;41.10;20.62;;;;;;;-1.11;76.49;100746.55;1786372;79;26278;-49
2020/12/03 00:16:49;;;;;;;35.83;18.32;;;;;;;-1.12;76.37;100731.16;1786918;79;25816;-55
2020/12/03 00:19:21;;;;;;;36.80;18.45;;;;;;;-1.09;76.36;100736.52;1787576;79;25669;-48
2020/12/03 00:21:53;;;;;;;41.90;19.77;;;;;;;-1.09;76.31;100732.54;1787496;79;26222;-50
2020/12/03 00:24:27;;;;;;;39.10;20.20;;;;;;;-1.10;76.20;100737.58;1787249;80;26729;-50
2020/12/03 00:26:56;;;;;;;35.33;18.30;;;;;;;-1.08;76.29;100736.30;1787372;79;26309;-50
2020/12/03 00:29:24;;;;;;;39.00;18.98;;;;;;;-1.06;76.21;100739.55;1787459;80;25591;-48
2020/12/03 00:31:51;;;;;;;37.08;18.57;;;;;;;-1.05;76.19;100739.85;1787391;79;25771;-50
2020/12/03 00:34:18;;;;;;;38.35;17.82;;;;;;;-1.05;76.07;100746.49;1787474;79;25634;-50
2020/12/03 00:36:46;;;;;;;39.20;19.73;;;;;;;-1.09;76.01;100743.16;1787603;79;25668;-48
2020/12/03 00:39:16;;;;;;;39.53;18.85;;;;;;;-1.08;76.12;100746.13;1787601;80;26325;-49
2020/12/03 00:41:48;;;;;;;38.42;17.80;;;;;;;-1.04;76.25;100741.48;1787601;79;26130;-48
2020/12/03 00:44:15;;;;;;;39.70;19.55;;;;;;;-1.03;76.17;100740.96;1787401;80;26280;-53
2020/12/03 00:46:42;;;;;;;42.43;18.98;;;;;;;-1.05;75.96;100741.18;1787532;79;26180;-50
2020/12/03 00:49:09;;;;;;;41.15;20.30;;;;;;;-1.04;76.17;100743.31;1787357;80;25686;-51
2020/12/03 00:51:35;;;;;;;43.52;19.95;;;;;;;-1.03;76.01;100744.95;1787343;79;25802;-47
2020/12/03 00:54:02;;;;;;;42.88;20.40;;;;;;;-1.04;76.03;100751.28;1787518;80;25725;-48
2020/12/03 00:56:29;;;;;;;39.10;18.82;;;;;;;-0.99;76.09;100755.41;1760924;80;25709;-49
2020/12/03 00:58:56;;;;;;;41.80;20.32;;;;;;;-1.02;76.02;100750.04;1787441;80;25604;-49
2020/12/03 01:01:25;;;;;;;37.40;19.23;;;;;;;-1.02;75.93;100756.67;1787507;79;25756;-51
2020/12/03 01:03:52;;;;;;;39.27;18.32;;;;;;;-1.01;76.03;100763.59;1787664;79;25674;-50
2020/12/03 01:06:20;;;;;;;38.70;19.82;;;;;;;-1.00;76.01;100762.58;1787643;79;25889;-49
2020/12/03 01:08:47;;;;;;;39.23;18.82;;;;;;;-1.02;75.90;100772.61;1787529;79;25697;-51
2020/12/03 01:11:13;;;;;;;42.62;19.48;;;;;;;-1.02;75.91;100774.43;1787605;79;25741;-50
2020/12/03 01:13:40;;;;;;;44.48;20.75;;;;;;;-1.01;75.94;100770.76;1787635;80;25686;-50
2020/12/03 01:16:18;;;;;;;41.63;18.67;;;;;;;-0.98;75.87;100763.69;1787520;79;26037;-54
2020/12/03 01:18:43;;;;;;;39.45;18.67;;;;;;;-0.96;75.85;100768.25;1786489;79;26233;-51
2020/12/03 01:21:09;;;;;;;41.75;19.75;;;;;;;-0.97;75.79;100760.81;1786783;80;26106;-50
2020/12/03 01:23:36;;;;;;;38.28;19.15;;;;;;;-0.99;75.70;100752.26;1786763;80;25702;-50
2020/12/03 01:26:03;;;;;;;40.38;18.80;;;;;;;-0.99;75.74;100750.09;1786791;79;27160;-55
2020/12/03 01:28:30;;;;;;;43.83;21.10;;;;;;;-0.96;75.89;100747.81;1786733;79;25812;-49
2020/12/03 01:30:56;;;;;;;40.95;20.27;;;;;;;-0.95;75.85;100742.00;1786710;79;26286;-49
2020/12/03 01:33:23;;;;;;;42.65;20.65;;;;;;;-0.95;75.66;100743.33;1786773;80;25685;-50
2020/12/03 01:35:50;;;;;;;45.73;21.68;;;;;;;-0.95;75.71;100739.34;1786641;80;26289;-50
2020/12/03 01:38:17;;;;;;;45.88;21.50;;;;;;;-0.94;75.77;100730.33;1786769;80;27279;-52
2020/12/03 01:40:50;;;;;;;47.03;22.02;;;;;;;-0.92;75.72;100728.78;1786753;80;25614;-50
2020/12/03 01:43:17;;;;;;;39.55;19.57;;;;;;;-0.91;75.73;100727.77;1786786;80;25857;-50
2020/12/03 01:45:59;;;;;;;44.10;22.10;;;;;;;-0.90;75.67;100711.61;1786755;79;25696;-50
2020/12/03 01:48:31;;;;;;;45.00;20.97;;;;;;;-0.90;75.61;100705.46;1786804;80;25611;-50
2020/12/03 01:51:01;;;;;;;43.28;21.40;;;;;;;-0.90;75.54;100698.83;1786759;80;27378;-51
2020/12/03 01:53:29;;;;;;;46.42;21.77;;;;;;;-0.90;75.59;100693.02;1786642;80;25669;-50
2020/12/03 01:55:58;;;;;;;40.35;19.90;;;;;;;-0.89;75.49;100685.84;1786761;79;25686;-49
2020/12/03 01:58:41;;;;;;;41.37;20.30;;;;;;;-0.91;75.45;100681.28;1766928;80;26253;-52
2020/12/03 02:01:10;;;;;;;43.95;20.92;;;;;;;-0.89;75.54;100684.00;1786768;80;25692;-50
2020/12/03 02:03:45;;;;;;;40.53;19.93;;;;;;;-0.88;75.50;100676.34;1787030;80;26328;-52
2020/12/03 02:06:22;;;;;;;42.62;20.30;;;;;;;-0.89;75.28;100669.91;1786312;79;26289;-49
2020/12/03 02:08:49;;;;;;;39.45;19.60;;;;;;;-0.88;75.34;100671.55;1785862;79;25824;-48
2020/12/03 02:11:18;;;;;;;41.13;19.80;;;;;;;-0.87;75.41;100666.02;1786722;80;25832;-47
2020/12/03 02:13:59;;;;;;;44.83;20.00;;;;;;;-0.85;75.36;100658.63;1786978;79;25683;-47
2020/12/03 02:16:33;;;;;;;41.08;20.08;;;;;;;-0.81;75.47;100657.13;1786820;80;25963;-49
2020/12/03 02:19:00;;;;;;;43.40;19.67;;;;;;;-0.79;75.14;100647.61;1786790;80;26247;-47
2020/12/03 02:21:27;;;;;;;39.25;19.17;;;;;;;-0.80;75.03;100647.31;1786713;80;25619;-48
2020/12/03 02:23:54;;;;;;;37.08;19.10;;;;;;;-0.80;75.03;100646.81;1786725;80;25845;-49
2020/12/03 02:26:21;;;;;;;37.17;19.52;;;;;;;-0.78;75.09;100638.09;1786982;80;25284;-49
2020/12/03 02:28:48;;;;;;;44.27;20.43;;;;;;;-0.75;75.15;100638.15;1786778;80;26359;-46
2020/12/03 02:31:16;;;;;;;38.70;20.10;;;;;;;-0.73;74.98;100641.91;1786775;79;25218;-50
2020/12/03 02:33:43;;;;;;;38.42;19.30;;;;;;;-0.76;74.84;100635.22;1767109;80;25671;-50
2020/12/03 02:36:15;;;;;;;43.60;20.00;;;;;;;-0.78;74.71;100642.61;1786616;80;25894;-48
2020/12/03 02:38:42;;;;;;;40.28;19.67;;;;;;;-0.79;74.82;100631.67;1786783;80;26023;-47
2020/12/03 02:41:10;;;;;;;36.80;19.05;;;;;;;-0.77;75.00;100626.45;1786816;79;26189;-46
2020/12/03 02:43:38;;;;;;;37.48;18.10;;;;;;;-0.78;74.89;100624.81;1786704;80;25739;-50
2020/12/03 02:46:05;;;;;;;36.17;19.12;;;;;;;-0.78;74.85;100632.78;1786834;80;26240;-50
2020/12/03 02:48:32;;;;;;;38.88;18.37;;;;;;;-0.79;74.85;100633.80;1786694;80;25885;-49
2020/12/03 02:50:59;;;;;;;37.58;20.00;;;;;;;-0.78;74.80;100625.34;1786747;80;25647;-48
2020/12/03 02:53:26;;;;;;;37.10;18.65;;;;;;;-0.77;74.89;100618.48;1786790;79;26148;-49
2020/12/03 02:55:52;;;;;;;39.60;19.07;;;;;;;-0.74;74.80;100613.74;1786688;79;25639;-48
2020/12/03 02:58:19;;;;;;;30.50;16.57;;;;;;;-0.77;74.81;100617.15;1786604;80;25664;-49
2020/12/03 03:00:46;;;;;;;38.42;19.40;;;;;;;-0.75;74.68;100608.92;1786755;80;25712;-47
2020/12/03 03:03:12;;;;;;;40.03;19.23;;;;;;;-0.76;74.64;100607.33;1786694;80;25602;-49
2020/12/03 03:05:39;;;;;;;42.67;20.48;;;;;;;-0.80;74.51;100607.47;1786784;80;26120;-49
2020/12/03 03:08:06;;;;;;;36.77;17.80;;;;;;;-0.80;74.56;100620.75;1786714;80;25593;-49
2020/12/03 03:10:33;;;;;;;38.23;18.95;;;;;;;-0.81;74.66;100619.14;1786678;80;25606;-50
2020/12/03 03:12:59;;;;;;;38.73;19.12;;;;;;;-0.82;74.64;100615.69;1786689;80;26319;-50
2020/12/03 03:15:26;;;;;;;43.95;21.07;;;;;;;-0.81;74.63;100604.53;1786798;80;25894;-49
2020/12/03 03:17:53;;;;;;;36.85;18.57;;;;;;;-0.82;74.62;100598.92;1766292;80;25970;-48
2020/12/03 03:20:20;;;;;;;35.68;17.90;;;;;;;-0.83;74.58;100598.11;1786576;80;25694;-48
2020/12/03 03:22:46;;;;;;;35.03;18.10;;;;;;;-0.83;74.61;100606.61;1786704;80;25685;-52
2020/12/03 03:25:13;;;;;;;38.10;19.05;;;;;;;-0.84;74.68;100596.48;1786612;80;26378;-50
2020/12/03 03:27:40;;;;;;;36.05;18.77;;;;;;;-0.82;74.61;100584.31;1786705;80;25702;-48
2020/12/03 03:30:07;;;;;;;37.58;19.55;;;;;;;-0.84;74.55;100579.22;1786790;80;26162;-48
2020/12/03 03:32:35;;;;;;;36.73;17.05;;;;;;;-0.86;74.65;100579.97;1786583;79;25845;-50
2020/12/03 03:35:04;;;;;;;37.73;17.73;;;;;;;-0.85;74.61;100579.44;1786679;80;25536;-50
2020/12/03 03:37:33;;;;;;;34.23;17.70;;;;;;;-0.84;74.71;100571.78;1786829;80;25558;-47
2020/12/03 03:40:05;;;;;;;35.10;17.95;;;;;;;-0.80;74.68;100574.27;1787042;80;26240;-46
2020/12/03 03:42:32;;;;;;;32.10;17.27;;;;;;;-0.77;74.56;100575.97;1786720;80;25988;-48
2020/12/03 03:44:59;;;;;;;37.38;17.32;;;;;;;-0.76;74.47;100581.56;1786637;80;25679;-49
2020/12/03 03:47:26;;;;;;;35.43;17.98;;;;;;;-0.73;74.46;100583.47;1786590;80;26169;-49
2020/12/03 03:49:52;;;;;;;32.55;17.27;;;;;;;-0.72;74.39;100571.29;1786728;80;25698;-49
2020/12/03 03:52:19;;;;;;;33.95;16.73;;;;;;;-0.72;74.21;100570.48;1786722;80;25611;-49
2020/12/03 03:54:46;;;;;;;33.25;17.52;;;;;;;-0.72;74.18;100566.50;1786670;80;25790;-47
2020/12/03 03:57:12;;;;;;;32.73;15.98;;;;;;;-0.72;74.23;100569.95;1786582;80;26302;-49
2020/12/03 03:59:39;;;;;;;30.90;17.25;;;;;;;-0.73;74.17;100560.39;1786707;80;26422;-48
2020/12/03 04:02:06;;;;;;;32.05;15.70;;;;;;;-0.71;74.22;100554.33;1786688;80;26291;-49
2020/12/03 04:04:32;;;;;;;32.88;16.90;;;;;;;-0.71;74.28;100542.37;1786685;79;25685;-51
2020/12/03 04:06:59;;;;;;;36.08;18.20;;;;;;;-0.70;74.03;100540.52;1786689;80;25755;-52
2020/12/03 04:09:26;;;;;;;31.17;16.73;;;;;;;-0.73;74.09;100539.14;1786603;80;25574;-51
2020/12/03 04:11:53;;;;;;;39.00;19.25;;;;;;;-0.72;74.09;100539.94;1786579;80;25622;-51
2020/12/03 04:14:19;;;;;;;34.10;15.53;;;;;;;-0.71;74.08;100533.59;1786629;80;25646;-49
2020/12/03 04:16:46;;;;;;;37.17;18.85;;;;;;;-0.74;74.00;100524.22;1786579;80;25713;-48
2020/12/03 04:19:13;;;;;;;35.13;16.45;;;;;;;-0.73;74.01;100513.07;1787162;80;26155;-47
2020/12/03 04:21:40;;;;;;;31.02;16.10;;;;;;;-0.74;73.99;100514.92;1787477;79;25635;-49
2020/12/03 04:24:07;;;;;;;31.75;15.75;;;;;;;-0.74;74.12;100514.92;1787566;80;25705;-48
2020/12/03 04:26:34;;;;;;;33.48;15.68;;;;;;;-0.72;74.01;100513.38;1787664;80;25576;-47
2020/12/03 04:29:00;;;;;;;34.92;16.57;;;;;;;-0.74;73.94;100510.14;1787559;80;25744;-50
2020/12/03 04:31:28;;;;;;;34.03;18.42;;;;;;;-0.75;73.96;100502.67;1787435;80;25735;-46
2020/12/03 04:33:54;;;;;;;34.13;17.45;;;;;;;-0.77;73.81;100497.61;1787409;79;25670;-57
2020/12/03 04:36:21;;;;;;;37.10;18.15;;;;;;;-0.80;73.93;100501.22;1787420;79;25690;-52
2020/12/03 04:38:48;;;;;;;33.85;17.32;;;;;;;-0.80;73.91;100506.53;1787698;80;25555;-49
2020/12/03 04:41:17;;;;;;;28.07;15.68;;;;;;;-0.82;73.86;100504.63;1787779;80;25554;-54
2020/12/03 04:43:49;;;;;;;36.33;17.77;;;;;;;-0.84;73.83;100499.54;1787713;80;25759;-50
2020/12/03 04:46:42;;;;;;;33.25;17.40;;;;;;;-0.88;73.77;100499.72;1787598;80;25570;-50
2020/12/03 04:49:26;;;;;;;36.33;15.85;;;;;;;-0.91;73.89;100505.48;1787760;80;25627;-49
2020/12/03 04:52:32;;;;;;;30.23;15.65;;;;;;;-0.90;74.00;100499.64;1787668;80;26371;-46
2020/12/03 04:55:22;;;;;;;32.55;16.70;;;;;;;-0.91;74.00;100497.51;1787701;79;25675;-51
2020/12/03 04:58:13;;;;;;;33.73;17.82;;;;;;;-0.90;74.07;100500.97;1787667;80;26143;-48
2020/12/03 05:00:47;;;;;;;38.17;16.42;;;;;;;-0.91;74.04;100502.82;1786607;80;25711;-49
2020/12/03 05:03:34;;;;;;;35.33;16.12;;;;;;;-0.91;74.05;100498.03;1787364;80;25717;-50
2020/12/03 05:06:39;;;;;;;36.03;16.57;;;;;;;-0.93;74.09;100498.27;1787637;79;25610;-50
2020/12/03 05:09:33;;;;;;;34.80;17.32;;;;;;;-0.91;74.16;100490.87;1761422;80;25664;-49
2020/12/03 05:12:18;;;;;;;33.10;17.83;;;;;;;-0.80;74.25;100498.06;1886279;75;34760;-50
2020/12/03 05:14:56;;;;;;;33.42;16.50;;;;;;;-0.87;74.01;100492.55;1818724;77;25673;-50
2020/12/03 05:18:04;;;;;;;30.90;16.32;;;;;;;-0.89;73.99;100498.09;1857254;77;27281;-47
2020/12/03 05:20:52;;;;;;;32.10;16.65;;;;;;;-0.93;73.93;100500.12;1857057;77;25667;-51
2020/12/03 05:23:25;;;;;;;28.02;14.93;;;;;;;-0.96;73.96;100511.98;1857326;77;26240;-48
2020/12/03 05:25:55;;;;;;;35.70;16.32;;;;;;;-1.00;73.96;100508.98;1824089;77;25705;-49
2020/12/03 05:28:49;;;;;;;30.02;16.55;;;;;;;-1.00;74.06;100514.81;1857345;77;25554;-54
2020/12/03 05:31:30;;;;;;;27.98;14.23;;;;;;;-0.99;74.16;100515.09;1857240;77;26227;-55
2020/12/03 05:34:18;;;;;;;29.15;16.15;;;;;;;-1.00;74.02;100505.52;1857146;77;25972;-49
2020/12/03 05:37:02;;;;;;;32.05;15.38;;;;;;;-1.01;73.92;100508.67;1857188;77;25721;-48
2020/12/03 05:39:40;;;;;;;32.25;15.45;;;;;;;-1.02;73.97;100508.90;1824141;77;26280;-51
2020/12/03 05:42:12;;;;;;;33.20;15.13;;;;;;;-1.02;74.06;100508.90;1850659;77;25431;-50
2020/12/03 05:44:53;;;;;;;30.30;15.20;;;;;;;-1.04;73.99;100509.16;1857455;77;25680;-48
2020/12/03 05:47:33;;;;;;;30.45;15.55;;;;;;;-1.05;73.93;100513.36;1857350;77;25559;-51
2020/12/03 05:50:13;;;;;;;29.70;15.20;;;;;;;-1.03;73.93;100521.91;1857404;77;25404;-49
2020/12/03 05:52:39;;;;;;;28.83;15.70;;;;;;;-1.05;73.98;100513.36;1856262;77;32487;-46
2020/12/03 05:55:13;;;;;;;29.87;14.55;;;;;;;-1.06;73.93;100505.89;1855970;77;26300;-50
2020/12/03 05:57:43;;;;;;;31.37;16.00;;;;;;;-1.10;73.86;100504.73;1857227;77;25750;-47
2020/12/03 06:00:15;;;;;;;33.35;17.23;;;;;;;-1.19;73.85;100488.32;1857146;77;25584;-46
2020/12/03 06:03:18;;;;;;;35.03;15.78;;;;;;;-1.13;73.83;100497.22;1857180;77;25672;-48
2020/12/03 06:06:28;;;;;;;31.90;16.93;;;;;;;-1.17;73.83;100486.24;1857219;77;25643;-48
2020/12/03 06:09:17;;;;;;;;;;;;;;;-1.21;73.90;100479.78;1859963;77;25698;-59
2020/12/03 06:12:13;;;;;;;30.02;14.50;;;;;;;-1.26;73.87;100470.36;1839507;77;25825;-50
2020/12/03 06:15:23;;;;;;;29.37;15.58;;;;;;;-1.30;73.97;100467.84;1831900;78;25596;-46
2020/12/03 06:18:19;;;;;;;32.35;15.75;;;;;;;-1.36;74.03;100461.61;1831813;77;25589;-48
2020/12/03 06:20:54;;;;;;;32.28;15.68;;;;;;;-1.42;74.06;100456.39;1831995;78;25822;-47
2020/12/03 06:23:48;;;;;;;30.30;14.90;;;;;;;-1.45;74.11;100455.51;1831342;78;25589;-51
2020/12/03 06:26:50;;;;;;;29.63;16.30;;;;;;;-1.48;74.21;100457.28;1831357;78;26396;-45
2020/12/03 06:29:37;;;;;;;31.40;16.77;;;;;;;-1.52;74.29;100451.61;1795512;78;25632;-49
2020/12/03 06:32:26;;;;;;;29.57;14.98;;;;;;;-1.57;74.45;100452.28;1744537;78;25746;-50
2020/12/03 06:35:40;;;;;;;35.65;16.40;;;;;;;-1.59;74.39;100440.29;1831453;78;25648;-50
2020/12/03 06:38:25;;;;;;;30.20;15.70;;;;;;;-1.61;74.47;100443.69;1831277;78;25577;-59
2020/12/03 06:41:30;;;;;;;34.05;16.32;;;;;;;-1.62;74.63;100441.53;1795054;79;27290;-49
2020/12/03 06:44:13;;;;;;;33.08;16.73;;;;;;;-1.64;74.79;100437.50;1791755;80;25693;-50
2020/12/03 06:47:25;;;;;;;36.75;17.17;;;;;;;-1.65;74.83;100431.89;1782759;80;25769;-47
2020/12/03 06:50:17;;;;;;;33.95;17.15;;;;;;;-1.67;74.92;100429.98;1780499;80;25590;-48
2020/12/03 06:53:07;;;;;;;34.33;16.85;;;;;;;-1.70;74.92;100429.93;1785890;80;26190;-49
2020/12/03 06:56:10;;;;;;;35.33;17.50;;;;;;;-1.71;75.16;100430.42;1779720;80;26366;-49
2020/12/03 06:59:15;;;;;;;40.43;18.73;;;;;;;-1.71;75.17;100432.28;1771354;78;25761;-47
2020/12/03 07:02:02;;;;;;;34.23;17.80;;;;;;;-1.70;75.27;100428.08;1778422;80;26349;-49
2020/12/03 07:05:24;;;;;;;40.10;17.20;;;;;;;-1.71;75.42;100416.36;1773850;80;25668;-46
2020/12/03 07:08:12;;;;;;;40.40;18.42;;;;;;;-1.70;75.42;100420.13;1787740;80;25727;-47
2020/12/03 07:11:19;;;;;;;40.05;19.82;;;;;;;-1.71;75.36;100414.52;1787179;80;25718;-47
2020/12/03 07:14:17;;;;;;;39.50;17.37;;;;;;;-1.72;75.53;100402.30;1786794;80;25742;-48
2020/12/03 07:17:10;;;;;;;36.40;17.25;;;;;;;-1.68;75.59;100415.92;1787035;80;25860;-48
2020/12/03 07:20:05;;;;;;;40.15;16.85;;;;;;;-1.65;75.71;100417.30;1786997;78;25702;-51
2020/12/03 07:22:46;;;;;;;45.05;17.10;;;;;;;-1.63;75.69;100426.67;1788481;79;25713;-50
2020/12/03 07:25:15;;;;;;;39.27;16.12;;;;;;;-1.62;75.64;100424.29;1788185;80;25790;-50
2020/12/03 07:28:02;;;;;;;36.98;16.90;;;;;;;-1.58;75.68;100428.13;1788454;79;25658;-48
2020/12/03 07:30:53;;;;;;;33.20;17.27;;;;;;;-1.57;75.85;100420.97;1788530;79;25645;-49
2020/12/03 07:33:46;;;;;;;37.08;17.10;;;;;;;-1.57;75.77;100432.38;1788053;78;26297;-51
2020/12/03 07:36:52;;;;;;;36.45;16.80;;;;;;;-1.54;75.84;100427.96;1777583;80;25752;-48
2020/12/03 07:39:24;;;;;;;36.08;17.30;;;;;;;-1.50;75.80;100428.31;1744094;81;25993;-47
2020/12/03 07:41:59;;;;;;;34.90;16.95;;;;;;;-1.42;76.03;100431.98;1756984;81;25723;-48
2020/12/03 07:44:37;;;;;;;38.83;18.95;;;;;;;-1.35;75.85;100438.52;1756916;81;25702;-47
2020/12/03 07:47:34;;;;;;;36.42;17.70;;;;;;;-1.29;75.78;100427.51;1757205;81;25730;-49
2020/12/03 07:50:28;;;;;;;37.10;18.95;;;;;;;-1.23;75.82;100425.28;1757603;81;26113;-53
2020/12/03 07:53:20;;;;;;;35.38;17.77;;;;;;;-1.05;75.81;100434.51;1757612;81;25740;-50
2020/12/03 07:55:48;;;;;;;36.10;16.57;;;;;;;-0.93;75.64;100419.92;1754064;81;25685;-51
2020/12/03 07:58:36;;;;;;;40.58;19.42;;;;;;;-0.75;75.62;100415.01;1758117;81;25748;-47
2020/12/03 08:01:25;;;;;;;35.28;17.98;;;;;;;-0.53;75.87;100415.77;1758400;81;25657;-47
2020/12/03 08:03:58;;;;;;;37.98;17.92;;;;;;;-0.30;75.25;100403.78;1758408;81;26262;-48
2020/12/03 08:06:31;;;;;;;34.30;17.67;;;;;;;0.01;74.97;100405.73;1783492;80;25727;-49
2020/12/03 08:09:06;;;;;;;35.05;17.70;;;;;;;0.25;75.00;100401.67;1789423;79;25718;-47
2020/12/03 08:11:46;;;;;;;37.50;18.15;;;;;;;0.61;74.22;100402.31;1789367;80;25759;-47
2020/12/03 08:14:35;;;;;;;37.85;17.00;;;;;;;0.90;74.64;100395.89;1776410;80;25650;-49
2020/12/03 08:17:06;;;;;;;37.98;18.67;;;;;;;1.35;75.03;100391.50;1789474;80;25664;-48
2020/12/03 08:19:38;;;;;;;36.30;18.55;;;;;;;1.79;73.09;100386.75;1785364;80;26185;-47
2020/12/03 08:22:26;;;;;;;34.63;19.07;;;;;;;2.00;72.14;100387.79;1789483;80;25626;-47
2020/12/03 08:25:19;;;;;;;35.65;19.15;;;;;;;2.22;72.15;100387.23;1789488;79;25619;-48
2020/12/03 08:27:58;;;;;;;38.25;17.87;;;;;;;2.39;70.57;100387.67;1789576;79;25645;-48
2020/12/03 08:30:35;;;;;;;39.80;19.98;;;;;;;2.61;70.16;100387.62;1789315;80;25704;-50
2020/12/03 08:36:14;;;;;;;39.35;19.20;;;;;;;2.94;69.11;100378.52;1815947;78;34689;-49
2020/12/03 08:38:42;;;;;;;38.20;20.20;;;;;;;3.02;68.51;100375.13;1787007;80;25680;-48
2020/12/03 08:41:14;;;;;;;41.80;21.85;;;;;;;3.04;67.33;100364.98;1787096;80;28044;-51
2020/12/03 08:43:47;;;;;;;39.58;21.02;;;;;;;3.07;68.20;100371.16;1786864;80;25761;-50
2020/12/03 08:46:16;;;;;;;35.95;20.20;;;;;;;3.25;67.64;100368.07;1787095;80;25602;-49
2020/12/03 08:48:42;;;;;;;35.88;20.40;;;;;;;3.38;67.60;100359.31;1786773;80;25618;-49
2020/12/03 08:51:12;;;;;;;44.95;20.88;;;;;;;3.64;67.24;100346.86;1768829;79;25578;-48
2020/12/03 08:53:45;;;;;;;41.98;21.82;;;;;;;3.80;65.12;100349.05;1755864;81;26158;-48
2020/12/03 08:56:29;;;;;;;40.08;21.48;;;;;;;3.78;65.42;100343.16;1772185;80;25671;-53
2020/12/03 08:59:09;;;;;;;42.05;21.82;;;;;;;3.76;65.77;100348.77;1769026;80;25682;-50
2020/12/03 09:01:50;;;;;;;40.15;22.02;;;;;;;3.84;65.12;100360.31;1768795;80;25701;-47
2020/12/03 09:04:25;;;;;;;41.15;21.90;;;;;;;3.71;64.06;100358.12;1737032;82;25588;-49
2020/12/03 09:06:54;;;;;;;42.98;21.85;;;;;;;3.85;65.05;100359.80;1737019;82;26696;-49
2020/12/03 09:09:25;;;;;;;41.15;21.97;;;;;;;3.98;64.70;100365.98;1737074;82;25702;-54
2020/12/03 09:11:52;;;;;;;43.50;23.25;;;;;;;3.86;63.68;100362.73;1736943;82;25730;-54
2020/12/03 09:14:20;;;;;;;39.70;22.25;;;;;;;3.74;63.74;100358.39;1736802;82;25785;-47
2020/12/03 09:16:53;;;;;;;42.05;23.18;;;;;;;3.81;64.47;100352.80;1737021;82;25759;-52
2020/12/03 09:19:23;;;;;;;40.98;23.05;;;;;;;3.92;64.97;100361.15;1737011;82;25720;-53
2020/12/03 09:21:51;;;;;;;42.78;22.82;;;;;;;4.17;62.87;100364.98;1736791;82;25663;-53
2020/12/03 09:24:23;;;;;;;44.30;22.50;;;;;;;4.16;64.07;100370.05;1737066;82;25762;-49
2020/12/03 09:26:52;;;;;;;41.70;22.50;;;;;;;4.43;62.52;100364.48;1747841;81;26357;-55
2020/12/03 09:29:20;;;;;;;37.03;21.33;;;;;;;4.43;62.50;100371.18;1743830;81;25784;-48
2020/12/03 09:31:51;;;;;;;39.65;21.42;;;;;;;4.46;62.10;100361.28;1736242;82;26124;-59
2020/12/03 09:34:18;;;;;;;37.23;21.70;;;;;;;4.59;61.23;100365.30;1738521;81;25660;-60
2020/12/03 09:36:45;;;;;;;37.33;20.68;;;;;;;4.78;61.50;100365.56;1758346;81;25710;-60
2020/12/03 09:39:12;;;;;;;40.15;21.27;;;;;;;4.88;60.08;100360.75;1758475;81;25654;-56
2020/12/03 09:41:42;;;;;;;41.18;23.05;;;;;;;5.22;60.86;100364.98;1758500;81;26336;-63
2020/12/03 09:44:14;;;;;;;;;;;;;;;5.45;60.10;100367.36;1761115;81;26936;-59
2020/12/03 09:46:45;;;;;;;36.58;20.23;;;;;;;5.43;57.99;100360.91;1758275;81;25634;-61
2020/12/03 09:49:15;;;;;;;44.40;21.30;;;;;;;5.58;60.16;100349.34;1757915;81;25770;-58
2020/12/03 09:51:42;;;;;;;41.13;22.17;;;;;;;6.05;59.92;100344.61;1757975;81;25613;-57
2020/12/03 09:54:10;;;;;;;39.70;22.85;;;;;;;6.13;57.85;100344.83;1757894;81;25645;-58
2020/12/03 09:56:40;;;;;;;39.53;22.02;;;;;;;6.39;58.64;100337.95;1757892;81;25713;-55
2020/12/03 09:59:07;;;;;;;41.88;23.30;;;;;;;6.51;57.12;100340.28;1757816;81;25682;-57
2020/12/03 10:02:15;;;;;;;38.73;22.37;;;;;;;6.29;55.96;100337.47;1757844;81;25739;-58
2020/12/03 10:05:22;;;;;;;45.63;22.02;;;;;;;6.31;57.50;100335.84;1736714;81;25719;-58
2020/12/03 10:08:21;;;;;;;41.80;23.02;;;;;;;6.36;53.28;100323.17;1749915;81;25680;-59
2020/12/03 10:11:22;;;;;;;38.92;23.05;;;;;;;6.53;55.29;100327.36;1729055;82;27136;-59
2020/12/03 10:14:18;;;;;;;44.38;24.75;;;;;;;6.38;54.94;100316.18;1729693;82;25658;-58
2020/12/03 10:16:48;;;;;;;41.05;23.00;;;;;;;6.04;54.55;100312.12;1729059;82;25781;-57
2020/12/03 10:19:16;;;;;;;;;;;;;;;5.52;56.12;100306.98;1732203;82;25639;-58
2020/12/03 10:21:50;;;;;;;43.23;22.98;;;;;;;5.24;56.42;100297.67;1729837;82;25711;-58
2020/12/03 10:24:23;;;;;;;40.83;23.25;;;;;;;5.16;57.17;100300.91;1729426;82;26312;-56
2020/12/03 10:27:23;;;;;;;41.80;22.52;;;;;;;4.96;57.08;100291.85;1704097;82;25691;-59
2020/12/03 10:29:55;;;;;;;;;;;;;;;4.95;58.16;100292.13;1731945;82;25638;-57
2020/12/03 10:32:24;;;;;;;43.17;23.62;;;;;;;5.41;58.17;100310.25;1728567;82;26346;-58
2020/12/03 10:34:51;;;;;;;42.25;23.60;;;;;;;5.61;57.63;100295.13;1731143;82;25778;-55
2020/12/03 10:37:33;;;;;;;37.88;22.70;;;;;;;5.95;57.04;100293.08;1738874;82;26869;-58
2020/12/03 10:40:15;;;;;;;42.15;23.12;;;;;;;6.32;56.03;100291.80;1738912;82;25654;-56
2020/12/03 10:42:50;;;;;;;39.80;22.52;;;;;;;6.79;56.40;100288.95;1738935;82;25699;-59
2020/12/03 10:45:23;;;;;;;42.93;24.07;;;;;;;6.98;55.32;100283.69;1738893;81;25601;-57
2020/12/03 10:47:58;;;;;;;41.98;23.38;;;;;;;7.39;56.22;100281.89;1712074;82;25659;-57
2020/12/03 10:50:53;;;;;;;37.70;22.07;;;;;;;7.66;55.08;100282.62;1738995;82;25842;-57
2020/12/03 10:53:29;;;;;;;40.73;23.40;;;;;;;7.87;54.43;100286.38;1738849;82;25775;-58
2020/12/03 10:56:02;;;;;;;39.38;21.65;;;;;;;7.54;53.49;100280.87;1738885;82;25671;-59
2020/12/03 11:02:42;;;;;;;40.12;22.37;;;;;;;7.42;52.61;100289.39;1738863;82;25777;-58
2020/12/03 11:05:11;;;;;;;50.55;26.57;;;;;;;7.24;51.15;100279.38;1739012;82;25716;-58
2020/12/03 11:07:39;;;;;;;41.20;23.20;;;;;;;6.94;50.51;100266.50;1749476;81;26327;-58
2020/12/03 11:10:07;;;;;;;46.02;25.05;;;;;;;6.66;51.16;100260.87;1769572;81;25671;-58
2020/12/03 11:12:34;;;;;;;41.63;23.95;;;;;;;6.61;52.25;100254.20;1769380;81;25720;-57
2020/12/03 11:15:06;;;;;;;46.75;25.00;;;;;;;6.65;51.21;100247.16;1769440;81;25745;-58
2020/12/03 11:17:41;;;;;;;41.45;23.32;;;;;;;6.53;52.51;100247.53;1769449;81;27538;-58
2020/12/03 11:20:09;;;;;;;42.40;25.02;;;;;;;6.62;51.95;100246.92;1753590;81;25705;-58
2020/12/03 11:22:41;;;;;;;44.42;25.32;;;;;;;6.49;52.40;100240.34;1742628;81;25698;-58
2020/12/03 11:25:13;;;;;;;44.08;23.95;;;;;;;6.45;53.20;100239.28;1769133;81;26263;-58
2020/12/03 11:27:43;;;;;;;43.80;23.75;;;;;;;6.25;54.00;100238.39;1759422;81;25748;-59
2020/12/03 11:30:23;;;;;;;43.73;24.20;;;;;;;6.09;53.73;100240.92;1739406;82;25871;-58
2020/12/03 11:32:52;;;;;;;43.70;24.72;;;;;;;5.90;54.18;100225.44;1739447;82;25663;-59
2020/12/03 11:36:16;;;;;;;43.30;23.98;;;;;;;5.82;54.84;100220.66;1846996;76;34752;-60
2020/12/03 11:38:56;;;;;;;40.03;23.75;;;;;;;5.83;55.56;100216.11;1817106;78;25673;-61
2020/12/03 11:44:30;;;;;;;44.18;24.70;;;;;;;5.86;52.71;100205.62;1846911;76;34687;-57
2020/12/03 11:49:32;;;;;;;43.10;24.07;;;;;;;5.59;54.16;100201.48;1816949;78;25989;-56
2020/12/03 11:52:18;;;;;;;44.03;25.02;;;;;;;5.48;55.05;100191.09;1816716;78;25743;-56
2020/12/03 11:54:46;;;;;;;45.08;24.75;;;;;;;5.35;54.65;100187.16;1816951;78;25708;-57
2020/12/03 11:57:14;;;;;;;48.30;24.87;;;;;;;5.17;55.46;100185.33;1812987;78;25709;-57
2020/12/03 11:59:42;;;;;;;42.05;23.90;;;;;;;5.10;55.87;100176.80;1787695;80;25864;-55
2020/12/03 12:02:11;;;;;;;51.95;26.77;;;;;;;5.09;56.20;100176.55;1787560;79;26771;-54
2020/12/03 12:12:09;;;;;;;41.95;22.55;;;;;;;4.30;55.70;100179.68;1787484;80;25665;-57